createdAt,value
2023-02-17T00:01:30.713Z,69.38
2023-02-17T00:03:59.636Z,70.88
2023-02-17T00:06:30.103Z,72.53
2023-02-17T00:09:00.703Z,69.80
2023-02-17T00:11:29.381Z,69.60
2023-02-17T00:13:57.578Z,70.00
2023-02-17T00:16:27.778Z,68.68
2023-02-17T00:18:58.197Z,67.47
2023-02-17T00:21:28.479Z,67.20
2023-02-17T00:23:58.194Z,63.53
2023-02-17T00:26:27.910Z,66.55
2023-02-17T00:28:56.167Z,64.10
2023-02-17T00:31:25.108Z,64.72
2023-02-17T00:33:55.539Z,63.08
2023-02-17T00:36:24.556Z,63.00
2023-02-17T00:38:54.298Z,63.65
2023-02-17T00:41:23.411Z,62.58
2023-02-17T00:43:52.878Z,59.67
2023-02-17T00:46:23.899Z,62.45
2023-02-17T00:48:54.029Z,60.47
2023-02-17T00:51:22.555Z,60.08
2023-02-17T00:53:50.644Z,60.15
2023-02-17T00:56:18.807Z,58.65
2023-02-17T00:58:47.246Z,56.40
2023-02-17T01:01:17.507Z,56.90
2023-02-17T01:03:45.984Z,55.97
2023-02-17T01:06:33.858Z,55.05
2023-02-17T01:09:02.404Z,55.78
2023-02-17T01:11:32.924Z,53.33
2023-02-17T01:14:03.509Z,56.28
2023-02-17T01:16:35.320Z,54.13
2023-02-17T01:19:06.889Z,54.03
2023-02-17T01:21:35.860Z,53.40
2023-02-17T01:24:06.377Z,53.17
2023-02-17T01:26:39.310Z,54.35
2023-02-17T01:29:08.386Z,54.60
2023-02-17T01:31:38.584Z,52.85
2023-02-17T01:34:06.918Z,56.05
2023-02-17T01:36:38.696Z,54.58
2023-02-17T01:39:06.946Z,53.83
2023-02-17T01:41:34.933Z,52.75
2023-02-17T01:44:13.214Z,53.78
2023-02-17T01:46:44.113Z,55.35
2023-02-17T01:49:22.690Z,57.60
2023-02-17T01:51:53.939Z,58.28
2023-02-17T01:54:28.040Z,58.13
2023-02-17T01:56:58.388Z,56.35
2023-02-17T01:59:26.814Z,53.13
2023-02-17T02:02:01.933Z,57.15
2023-02-17T02:07:01.522Z,56.05
2023-02-17T02:09:36.203Z,61.08
2023-02-17T02:12:15.959Z,57.63
2023-02-17T02:14:46.726Z,56.70
2023-02-17T02:17:26.894Z,59.47
2023-02-17T02:20:13.953Z,59.03
2023-02-17T02:23:14.571Z,57.85
2023-02-17T02:26:12.134Z,56.90
2023-02-17T02:28:55.531Z,58.00
2023-02-17T02:31:34.114Z,60.73
2023-02-17T02:34:07.969Z,60.30
2023-02-17T02:36:41.072Z,60.78
2023-02-17T02:39:12.503Z,60.88
2023-02-17T02:41:43.658Z,63.22
2023-02-17T02:44:16.140Z,63.35
2023-02-17T02:46:44.530Z,62.30
2023-02-17T02:49:14.170Z,63.30
2023-02-17T02:51:50.919Z,59.45
2023-02-17T02:54:40.124Z,62.10
2023-02-17T02:57:31.346Z,61.80
2023-02-17T03:00:10.570Z,63.97
2023-02-17T03:02:46.106Z,62.92
2023-02-17T03:05:20.765Z,58.85
2023-02-17T03:07:54.439Z,63.95
2023-02-17T03:10:22.896Z,64.70
2023-02-17T03:12:51.435Z,63.25
2023-02-17T03:15:24.849Z,64.30
2023-02-17T03:17:53.095Z,62.45
2023-02-17T03:20:23.093Z,60.03
2023-02-17T03:22:51.968Z,59.92
2023-02-17T03:25:20.450Z,58.92
2023-02-17T03:27:48.604Z,59.67
2023-02-17T03:30:17.407Z,60.45
2023-02-17T03:32:45.636Z,59.05
2023-02-17T03:35:14.430Z,60.25
2023-02-17T03:37:44.214Z,57.00
2023-02-17T03:40:12.794Z,60.63
2023-02-17T03:42:40.985Z,57.55
2023-02-17T03:45:09.769Z,60.13
2023-02-17T03:47:37.933Z,56.00
2023-02-17T03:50:07.751Z,56.40
2023-02-17T03:52:35.826Z,57.67
2023-02-17T03:55:06.103Z,57.88
2023-02-17T03:57:34.825Z,56.88
2023-02-17T04:00:04.402Z,56.47
2023-02-17T04:02:43.994Z,56.35
2023-02-17T04:05:12.609Z,56.47
2023-02-17T04:07:40.666Z,54.70
2023-02-17T04:10:11.089Z,57.78
2023-02-17T04:12:39.322Z,58.22
2023-02-17T04:15:08.595Z,56.72
2023-02-17T04:17:38.171Z,55.53
2023-02-17T04:20:08.043Z,58.30
2023-02-17T04:22:36.059Z,57.58
2023-02-17T04:25:04.284Z,58.15
2023-02-17T04:27:34.017Z,58.28
2023-02-17T04:30:02.254Z,57.55
2023-02-17T04:32:30.967Z,58.80
2023-02-17T04:34:58.978Z,57.75
2023-02-17T04:37:27.244Z,58.28
2023-02-17T04:39:55.678Z,58.63
2023-02-17T04:42:23.724Z,61.17
2023-02-17T04:44:53.331Z,62.65
2023-02-17T04:47:21.725Z,63.10
2023-02-17T04:49:49.813Z,58.42
2023-02-17T04:52:18.032Z,60.40
2023-02-17T04:54:46.094Z,62.60
2023-02-17T04:57:14.407Z,63.00
2023-02-17T04:59:45.909Z,63.42
2023-02-17T05:02:15.494Z,62.20
2023-02-17T05:04:45.900Z,62.47
2023-02-17T05:07:14.436Z,59.65
2023-02-17T05:09:42.667Z,59.15
2023-02-17T05:12:11.085Z,60.03
2023-02-17T05:14:39.392Z,61.85
2023-02-17T05:17:07.579Z,60.92
2023-02-17T05:19:37.298Z,65.47
2023-02-17T05:22:05.580Z,61.22
2023-02-17T05:24:34.004Z,65.57
2023-02-17T05:27:02.104Z,64.75
2023-02-17T05:29:30.334Z,62.40
2023-02-17T05:31:58.405Z,65.80
2023-02-17T05:34:26.878Z,65.28
2023-02-17T05:36:56.665Z,64.65
2023-02-17T05:39:24.702Z,68.38
2023-02-17T05:41:53.318Z,66.50
2023-02-17T05:44:21.914Z,69.70
2023-02-17T05:46:50.179Z,63.78
2023-02-17T05:49:18.462Z,67.03
2023-02-17T05:51:46.612Z,67.35
2023-02-17T05:54:16.227Z,67.72
2023-02-17T05:56:44.443Z,61.33
2023-02-17T05:59:12.608Z,66.00
2023-02-17T06:01:41.071Z,61.97
2023-02-17T06:04:09.164Z,61.15
2023-02-17T06:06:37.480Z,61.85
2023-02-17T06:09:05.689Z,62.00
2023-02-17T06:11:35.192Z,62.45
2023-02-17T06:14:03.656Z,59.67
2023-02-17T06:16:31.993Z,58.13
2023-02-17T06:19:02.258Z,59.13
2023-02-17T06:21:30.838Z,56.72
2023-02-17T06:23:58.949Z,58.50
2023-02-17T06:26:27.362Z,57.65
2023-02-17T06:28:56.887Z,56.83
2023-02-17T06:31:24.995Z,53.25
2023-02-17T06:33:53.516Z,51.35
2023-02-17T06:36:21.586Z,52.67
2023-02-17T06:38:49.818Z,50.90
2023-02-17T06:41:18.028Z,51.60
2023-02-17T06:43:46.138Z,54.47
2023-02-17T06:46:15.769Z,50.05
2023-02-17T06:48:44.000Z,52.92
2023-02-17T06:51:12.044Z,53.42
2023-02-17T06:53:40.494Z,50.33
2023-02-17T06:56:08.883Z,49.50
2023-02-17T06:58:38.285Z,47.83
2023-02-17T07:01:08.801Z,47.08
2023-02-17T07:03:38.964Z,47.47
2023-02-17T07:06:07.797Z,46.13
2023-02-17T07:08:36.053Z,46.45
2023-02-17T07:11:07.113Z,46.47
2023-02-17T07:13:35.775Z,44.45
2023-02-17T07:16:04.584Z,45.40
2023-02-17T07:18:33.364Z,42.53
2023-02-17T07:21:02.810Z,45.00
2023-02-17T07:23:31.311Z,45.42
2023-02-17T07:26:03.198Z,42.35
2023-02-17T07:28:32.019Z,43.20
2023-02-17T07:31:06.626Z,38.17
2023-02-17T07:33:36.136Z,39.00
2023-02-17T07:36:09.310Z,39.58
2023-02-17T07:38:37.714Z,37.40
2023-02-17T07:41:07.220Z,37.55
2023-02-17T07:43:35.770Z,37.88
2023-02-17T07:46:05.968Z,36.47
2023-02-17T07:48:34.958Z,36.17
2023-02-17T07:51:07.180Z,36.92
2023-02-17T07:53:37.180Z,35.10
2023-02-17T07:56:06.177Z,34.45
2023-02-17T07:58:34.847Z,33.83
2023-02-17T08:01:07.727Z,33.60
2023-02-17T08:03:36.173Z,33.60
2023-02-17T08:06:05.342Z,31.50
2023-02-17T08:08:50.736Z,30.98
2023-02-17T08:11:38.214Z,28.05
2023-02-17T08:14:06.381Z,28.88
2023-02-17T08:16:34.529Z,28.00
2023-02-17T08:19:02.943Z,28.30
2023-02-17T08:21:31.058Z,27.15
2023-02-17T08:23:59.571Z,26.25
2023-02-17T08:26:29.132Z,25.63
2023-02-17T08:28:57.600Z,24.30
2023-02-17T08:31:27.874Z,23.17
2023-02-17T08:33:57.761Z,22.50
2023-02-17T08:36:26.344Z,23.17
2023-02-17T08:38:54.876Z,21.42
2023-02-17T08:41:25.047Z,20.77
2023-02-17T08:43:54.877Z,20.38
2023-02-17T08:46:23.425Z,19.10
2023-02-17T08:48:52.780Z,18.58
2023-02-17T08:51:23.953Z,18.92
2023-02-17T08:53:52.868Z,19.00
2023-02-17T08:56:21.400Z,18.90
2023-02-17T08:58:50.244Z,20.20
2023-02-17T09:01:20.467Z,18.70
2023-02-17T09:03:50.439Z,20.15
2023-02-17T09:06:19.639Z,19.17
2023-02-17T09:08:47.978Z,20.00
2023-02-17T09:11:17.459Z,20.75
2023-02-17T09:13:45.696Z,21.58
2023-02-17T09:16:14.145Z,22.50
2023-02-17T09:18:43.924Z,22.55
2023-02-17T09:21:14.181Z,22.65
2023-02-17T09:23:43.519Z,22.48
2023-02-17T09:26:14.034Z,22.80
2023-02-17T09:28:42.941Z,23.70
2023-02-17T09:31:12.896Z,23.92
2023-02-17T09:33:41.630Z,23.35
2023-02-17T09:36:13.991Z,24.48
2023-02-17T09:38:42.736Z,24.23
2023-02-17T09:41:19.985Z,25.38
2023-02-17T09:43:48.699Z,26.65
2023-02-17T09:46:24.865Z,24.33
2023-02-17T09:48:55.276Z,24.63
2023-02-17T09:51:31.561Z,25.08
2023-02-17T09:54:07.595Z,25.02
2023-02-17T09:56:40.240Z,24.23
2023-02-17T09:59:16.035Z,24.35
2023-02-17T10:01:45.578Z,23.25
2023-02-17T10:04:18.327Z,22.83
2023-02-17T10:06:52.867Z,22.80
2023-02-17T10:09:26.692Z,22.50
2023-02-17T10:12:02.263Z,22.70
2023-02-17T10:14:35.995Z,22.52
2023-02-17T10:17:09.280Z,22.10
2023-02-17T10:19:45.522Z,21.63
2023-02-17T10:22:19.406Z,20.70
2023-02-17T10:24:47.569Z,20.17
2023-02-17T10:27:41.425Z,19.35
2023-02-17T10:30:22.482Z,18.48
2023-02-17T10:33:04.386Z,18.63
2023-02-17T10:35:49.309Z,19.40
2023-02-17T10:38:27.684Z,19.38
2023-02-17T10:40:57.284Z,18.98
2023-02-17T10:43:30.115Z,18.48
2023-02-17T10:46:00.769Z,18.02
2023-02-17T10:48:36.255Z,18.38
2023-02-17T10:51:04.832Z,17.70
2023-02-17T10:53:37.524Z,17.92
2023-02-17T10:56:11.792Z,17.63
2023-02-17T10:58:49.759Z,17.17
2023-02-17T11:01:18.660Z,17.63
2023-02-17T11:03:46.946Z,16.90
2023-02-17T11:06:20.817Z,16.80
2023-02-17T11:08:55.347Z,16.15
2023-02-17T11:11:25.202Z,16.02
2023-02-17T11:14:11.805Z,15.75
2023-02-17T11:16:43.141Z,15.73
2023-02-17T11:19:23.553Z,14.52
2023-02-17T11:21:52.589Z,15.48
2023-02-17T11:24:22.806Z,14.50
2023-02-17T11:26:58.992Z,14.80
2023-02-17T11:29:28.170Z,14.68
2023-02-17T11:31:59.358Z,15.57
2023-02-17T11:34:30.585Z,16.48
2023-02-17T11:37:01.390Z,16.52
2023-02-17T11:39:31.405Z,15.27
2023-02-17T11:41:59.777Z,14.60
2023-02-17T11:44:29.666Z,14.52
2023-02-17T11:47:11.016Z,14.32
2023-02-17T11:50:39.001Z,15.70
2023-02-17T11:53:21.464Z,15.32
2023-02-17T11:56:07.735Z,14.35
2023-02-17T11:58:55.109Z,15.60
2023-02-17T12:01:40.495Z,15.48
2023-02-17T12:04:26.712Z,15.23
2023-02-17T12:07:15.680Z,15.15
2023-02-17T12:09:54.125Z,14.20
2023-02-17T12:12:31.626Z,15.93
2023-02-17T12:15:09.711Z,15.27
2023-02-17T12:17:47.638Z,15.80
2023-02-17T12:20:34.873Z,16.33
2023-02-17T12:23:15.337Z,15.70
2023-02-17T12:25:49.977Z,17.20
2023-02-17T12:28:41.462Z,16.08
2023-02-17T12:31:19.341Z,16.13
2023-02-17T12:33:57.610Z,15.48
2023-02-17T12:36:32.756Z,15.88
2023-02-17T12:39:05.183Z,14.35
2023-02-17T12:41:37.485Z,14.13
2023-02-17T12:44:13.991Z,14.10
2023-02-17T12:46:44.825Z,12.68
2023-02-17T12:49:17.795Z,13.60
2023-02-17T12:51:50.407Z,12.15
2023-02-17T12:54:24.478Z,11.27
2023-02-17T12:59:30.511Z,9.95
2023-02-17T13:02:03.348Z,9.25
2023-02-17T13:04:33.161Z,9.68
2023-02-17T13:07:21.231Z,9.07
2023-02-17T13:09:51.373Z,8.23
2023-02-17T13:12:40.622Z,8.13
2023-02-17T13:15:30.360Z,6.90
2023-02-17T13:18:03.254Z,7.50
2023-02-17T13:20:56.964Z,7.22
2023-02-17T13:23:35.028Z,7.72
2023-02-17T13:26:35.725Z,8.75
2023-02-17T13:29:22.484Z,8.15
2023-02-17T13:31:54.768Z,8.77
2023-02-17T13:34:33.418Z,8.93
2023-02-17T13:37:05.569Z,8.57
2023-02-17T13:39:39.099Z,8.90
2023-02-17T13:42:33.471Z,8.30
2023-02-17T13:45:02.578Z,7.70
2023-02-17T13:47:37.984Z,7.40
2023-02-17T13:50:08.257Z,7.13
2023-02-17T13:52:36.344Z,6.55
2023-02-17T13:55:07.328Z,6.82
2023-02-17T13:57:37.637Z,6.35
2023-02-17T14:00:09.302Z,6.15
2023-02-17T14:02:48.033Z,6.20
2023-02-17T14:05:21.158Z,6.13
2023-02-17T14:07:50.235Z,5.30
2023-02-17T14:10:24.548Z,4.90
2023-02-17T14:12:53.549Z,4.53
2023-02-17T14:15:24.317Z,4.57
2023-02-17T14:17:54.508Z,4.47
2023-02-17T14:20:30.936Z,4.10
2023-02-17T14:23:05.187Z,4.45
2023-02-17T14:25:36.041Z,3.30
2023-02-17T14:28:05.492Z,3.67
2023-02-17T14:30:36.127Z,3.90
2023-02-17T14:33:08.535Z,3.05
2023-02-17T14:35:39.303Z,3.20
2023-02-17T14:38:20.984Z,2.85
2023-02-17T14:40:49.236Z,3.03
2023-02-17T14:43:17.411Z,3.40
2023-02-17T14:45:45.755Z,2.60
2023-02-17T14:48:15.470Z,2.35
2023-02-17T14:50:44.941Z,2.50
2023-02-17T14:53:19.406Z,2.40
2023-02-17T14:55:51.448Z,2.58
2023-02-17T14:58:21.448Z,2.20
2023-02-17T15:00:50.137Z,2.00
2023-02-17T15:03:20.036Z,2.33
2023-02-17T15:05:48.540Z,1.92
2023-02-17T15:08:19.968Z,2.88
2023-02-17T15:10:48.233Z,2.13
2023-02-17T15:13:18.840Z,2.22
2023-02-17T15:15:49.247Z,2.22
2023-02-17T15:18:20.210Z,1.50
2023-02-17T15:20:50.600Z,1.52
2023-02-17T15:23:21.195Z,1.60
2023-02-17T15:25:50.034Z,1.55
2023-02-17T15:28:20.518Z,2.00
2023-02-17T15:30:52.607Z,1.30
2023-02-17T15:33:23.671Z,1.88
2023-02-17T15:35:54.776Z,1.60
2023-02-17T15:38:24.159Z,1.50
2023-02-17T15:40:52.642Z,1.50
2023-02-17T15:43:22.896Z,1.88
2023-02-17T15:45:51.100Z,2.20
2023-02-17T15:48:24.719Z,1.55
2023-02-17T15:50:53.007Z,1.80
2023-02-17T15:53:21.290Z,1.73
2023-02-17T15:55:50.081Z,2.25
2023-02-17T15:58:21.194Z,2.75
2023-02-17T16:00:50.294Z,3.15
2023-02-17T16:03:19.185Z,3.15
2023-02-17T16:05:49.634Z,2.80
2023-02-17T16:08:17.745Z,2.65
2023-02-17T16:10:47.084Z,2.70
2023-02-17T16:13:19.523Z,3.47
2023-02-17T16:15:48.742Z,4.00
2023-02-17T16:18:21.989Z,3.05
2023-02-17T16:20:52.374Z,2.97
2023-02-17T16:23:20.881Z,3.67
2023-02-17T16:25:51.110Z,3.10
2023-02-17T16:28:22.296Z,3.30
2023-02-17T16:30:51.721Z,3.47
2023-02-17T16:33:20.206Z,2.90
2023-02-17T16:35:50.862Z,2.70
2023-02-17T16:38:23.530Z,3.67
2023-02-17T16:40:54.890Z,4.07
2023-02-17T16:43:26.801Z,3.63
2023-02-17T16:45:57.323Z,2.80
2023-02-17T16:48:27.472Z,3.17
2023-02-17T16:50:56.124Z,3.55
2023-02-17T16:53:25.711Z,3.90
2023-02-17T16:55:56.138Z,3.40
2023-02-17T16:58:26.006Z,3.80
2023-02-17T17:00:56.378Z,4.80
2023-02-17T17:03:24.595Z,3.85
2023-02-17T17:05:53.672Z,2.67
2023-02-17T17:08:22.448Z,3.35
2023-02-17T17:10:51.899Z,3.45
2023-02-17T17:13:20.371Z,2.97
2023-02-17T17:15:48.818Z,2.85
2023-02-17T17:18:21.032Z,3.95
2023-02-17T17:20:49.543Z,3.25
2023-02-17T17:23:18.762Z,3.95
2023-02-17T17:25:48.705Z,3.28
2023-02-17T17:28:20.280Z,3.47
2023-02-17T17:30:48.919Z,4.28
2023-02-17T17:33:17.308Z,3.53
2023-02-17T17:35:45.533Z,3.55
2023-02-17T17:38:15.664Z,4.32
2023-02-17T17:40:53.318Z,5.18
2023-02-17T17:43:24.356Z,3.00
2023-02-17T17:45:53.032Z,2.85
2023-02-17T17:48:21.200Z,3.38
2023-02-17T17:50:50.537Z,3.45
2023-02-17T17:53:18.639Z,3.03
2023-02-17T17:55:48.254Z,3.63
2023-02-17T17:58:17.191Z,3.58
2023-02-17T18:00:46.895Z,3.55
2023-02-17T18:03:15.448Z,3.50
2023-02-17T18:05:43.604Z,3.65
2023-02-17T18:08:12.396Z,3.78
2023-02-17T18:10:42.436Z,4.05
2023-02-17T18:13:13.428Z,4.28
2023-02-17T18:15:43.024Z,3.80
2023-02-17T18:18:13.355Z,3.47
2023-02-17T18:20:41.750Z,4.00
2023-02-17T18:23:10.014Z,3.47
2023-02-17T18:25:38.388Z,3.50
2023-02-17T18:28:06.810Z,3.33
2023-02-17T18:30:35.381Z,3.72
2023-02-17T18:33:03.453Z,3.67
2023-02-17T18:35:35.760Z,3.45
2023-02-17T18:38:04.214Z,3.88
2023-02-17T18:40:32.776Z,3.53
2023-02-17T18:43:00.864Z,3.70
2023-02-17T18:45:29.078Z,4.03
2023-02-17T18:47:57.466Z,3.10
2023-02-17T18:50:25.972Z,3.50
2023-02-17T18:52:55.773Z,4.75
2023-02-17T18:55:23.785Z,3.92
2023-02-17T18:57:52.186Z,4.88
2023-02-17T19:00:20.669Z,4.00
2023-02-17T19:02:49.043Z,4.45
2023-02-17T19:05:18.390Z,4.18
2023-02-17T19:07:46.502Z,4.55
2023-02-17T19:10:16.706Z,4.95
2023-02-17T19:12:45.140Z,4.20
2023-02-17T19:15:16.441Z,4.07
2023-02-17T19:17:45.733Z,3.60
2023-02-17T19:20:14.715Z,4.13
2023-02-17T19:22:43.153Z,3.65
2023-02-17T19:25:11.451Z,4.10
2023-02-17T19:27:41.617Z,3.60
2023-02-17T19:30:10.966Z,3.80
2023-02-17T19:32:39.134Z,3.45
2023-02-17T19:35:10.572Z,3.60
2023-02-17T19:37:39.589Z,3.97
2023-02-17T19:40:09.371Z,3.70
2023-02-17T19:42:39.965Z,3.97
2023-02-17T19:45:10.107Z,4.72
2023-02-17T19:47:38.225Z,3.63
2023-02-17T19:50:07.795Z,3.67
2023-02-17T19:52:38.181Z,4.38
2023-02-17T19:55:06.896Z,4.57
2023-02-17T19:57:35.280Z,3.65
2023-02-17T20:00:04.215Z,4.32
2023-02-17T20:02:33.973Z,3.47
2023-02-17T20:05:02.394Z,3.80
2023-02-17T20:07:31.661Z,3.53
2023-02-17T20:10:00.113Z,3.67
2023-02-17T20:12:28.180Z,3.25
2023-02-17T20:14:57.416Z,3.90
2023-02-17T20:17:25.549Z,3.80
2023-02-17T20:19:55.168Z,4.47
2023-02-17T20:22:24.782Z,3.97
2023-02-17T20:24:52.809Z,3.60
2023-02-17T20:27:21.663Z,3.35
2023-02-17T20:29:49.754Z,3.72
2023-02-17T20:32:18.026Z,3.90
2023-02-17T20:34:46.413Z,3.85
2023-02-17T20:37:15.823Z,3.92
2023-02-17T20:39:44.169Z,4.00
2023-02-17T20:42:12.252Z,3.35
2023-02-17T20:44:40.390Z,4.00
2023-02-17T20:47:08.648Z,3.05
2023-02-17T20:49:37.131Z,4.10
2023-02-17T20:52:05.916Z,3.90
2023-02-17T20:54:35.756Z,3.58
2023-02-17T20:57:04.822Z,4.25
2023-02-17T20:59:33.230Z,3.58
2023-02-17T21:02:01.283Z,3.65
2023-02-17T21:04:29.576Z,3.10
2023-02-17T21:06:58.322Z,3.78
2023-02-17T21:09:27.437Z,4.10
2023-02-17T21:11:57.199Z,3.47
2023-02-17T21:14:25.259Z,3.88
2023-02-17T21:16:53.695Z,4.07
2023-02-17T21:19:22.086Z,3.28
2023-02-17T21:21:50.213Z,3.65
2023-02-17T21:24:18.665Z,3.90
2023-02-17T21:26:46.681Z,4.25
2023-02-17T21:29:16.353Z,3.40
2023-02-17T21:31:44.555Z,4.32
2023-02-17T21:34:12.822Z,3.75
2023-02-17T21:36:43.611Z,3.80
2023-02-17T21:39:11.653Z,3.10
2023-02-17T21:41:42.710Z,3.80
2023-02-17T21:44:30.532Z,3.70
2023-02-17T21:47:00.292Z,4.00
2023-02-17T21:49:28.393Z,4.03
2023-02-17T21:51:56.460Z,3.45
2023-02-17T21:54:24.689Z,3.05
2023-02-17T21:56:52.887Z,3.47
2023-02-17T21:59:21.329Z,3.60
2023-02-17T22:01:49.730Z,3.38
2023-02-17T22:04:19.403Z,3.45
2023-02-17T22:06:48.101Z,2.92
2023-02-17T22:09:18.143Z,4.45
2023-02-17T22:11:47.710Z,3.63
2023-02-17T22:14:17.812Z,3.67
2023-02-17T22:16:47.676Z,3.78
2023-02-17T22:19:21.934Z,3.58
2023-02-17T22:21:51.357Z,3.92
2023-02-17T22:24:21.491Z,3.00
2023-02-17T22:26:49.929Z,3.50
2023-02-17T22:29:18.235Z,3.65
2023-02-17T22:31:47.866Z,3.17
2023-02-17T22:34:16.217Z,3.75
2023-02-17T22:36:46.022Z,3.38
2023-02-17T22:39:14.096Z,3.13
2023-02-17T22:41:42.870Z,3.60
2023-02-17T22:44:12.149Z,3.33
2023-02-17T22:46:43.584Z,3.53
2023-02-17T22:49:11.898Z,3.25
2023-02-17T22:51:41.101Z,2.72
2023-02-17T22:54:10.718Z,3.60
2023-02-17T22:56:38.941Z,3.50
2023-02-17T22:59:07.669Z,3.65
2023-02-17T23:01:39.793Z,2.55
2023-02-17T23:04:08.480Z,3.55
2023-02-17T23:06:39.358Z,3.45
2023-02-17T23:09:09.485Z,3.00
2023-02-17T23:11:54.812Z,3.00
2023-02-17T23:14:28.609Z,3.17
2023-02-17T23:16:59.183Z,2.95
2023-02-17T23:19:27.876Z,3.45
2023-02-17T23:21:58.485Z,3.17
2023-02-17T23:24:27.655Z,3.22
2023-02-17T23:26:58.740Z,3.38
2023-02-17T23:29:27.086Z,2.85
2023-02-17T23:31:55.375Z,3.10
2023-02-17T23:34:23.562Z,3.20
2023-02-17T23:36:52.042Z,3.00
2023-02-17T23:39:20.475Z,3.35
2023-02-17T23:41:48.530Z,3.55
2023-02-17T23:44:18.917Z,3.35
2023-02-17T23:46:47.100Z,2.55
2023-02-17T23:49:16.584Z,2.92
2023-02-17T23:51:46.459Z,2.75
2023-02-17T23:54:14.701Z,2.65
2023-02-17T23:56:42.776Z,3.17
2023-02-17T23:59:11.760Z,2.70
